sensor_id;sensor_type;location;lat;lon;timestamp;temperature;humidity
62476;DHT22;50739;45.670;11.936;2022-09-09T00:03:54;21.79;86.04
62476;DHT22;50739;45.670;11.936;2022-09-09T00:09:02;21.91;85.87
62476;DHT22;50739;45.670;11.936;2022-09-09T00:14:13;21.93;85.39
62476;DHT22;50739;45.670;11.936;2022-09-09T00:19:22;21.86;85.78
62476;DHT22;50739;45.670;11.936;2022-09-09T00:24:28;21.93;85.54
62476;DHT22;50739;45.670;11.936;2022-09-09T00:29:39;21.89;85.55
62476;DHT22;50739;45.670;11.936;2022-09-09T00:34:48;21.85;85.62
62476;DHT22;50739;45.670;11.936;2022-09-09T00:39:52;21.81;85.70
62476;DHT22;50739;45.670;11.936;2022-09-09T00:45:01;21.81;85.08
62476;DHT22;50739;45.670;11.936;2022-09-09T00:50:16;21.82;84.61
62476;DHT22;50739;45.670;11.936;2022-09-09T00:55:24;21.77;84.33
62476;DHT22;50739;45.670;11.936;2022-09-09T01:00:31;21.71;84.61
62476;DHT22;50739;45.670;11.936;2022-09-09T01:05:41;21.77;83.94
62476;DHT22;50739;45.670;11.936;2022-09-09T01:10:49;21.61;84.60
62476;DHT22;50739;45.670;11.936;2022-09-09T01:15:55;21.59;84.74
62476;DHT22;50739;45.670;11.936;2022-09-09T01:21:04;21.64;84.12
62476;DHT22;50739;45.670;11.936;2022-09-09T01:26:15;21.54;84.40
62476;DHT22;50739;45.670;11.936;2022-09-09T01:31:22;21.47;84.57
62476;DHT22;50739;45.670;11.936;2022-09-09T01:36:31;21.57;84.07
62476;DHT22;50739;45.670;11.936;2022-09-09T01:41:35;21.36;84.86
62476;DHT22;50739;45.670;11.936;2022-09-09T01:46:37;21.38;84.52
62476;DHT22;50739;45.670;11.936;2022-09-09T01:51:41;21.36;84.41
62476;DHT22;50739;45.670;11.936;2022-09-09T01:56:53;21.37;84.22
62476;DHT22;50739;45.670;11.936;2022-09-09T02:02:06;21.37;84.50
62476;DHT22;50739;45.670;11.936;2022-09-09T02:07:21;21.36;84.46
62476;DHT22;50739;45.670;11.936;2022-09-09T02:12:30;21.37;84.44
62476;DHT22;50739;45.670;11.936;2022-09-09T02:17:34;21.33;84.64
62476;DHT22;50739;45.670;11.936;2022-09-09T02:22:39;21.43;84.51
62476;DHT22;50739;45.670;11.936;2022-09-09T02:27:45;21.43;84.66
62476;DHT22;50739;45.670;11.936;2022-09-09T02:32:48;21.40;84.68
62476;DHT22;50739;45.670;11.936;2022-09-09T02:37:55;21.40;84.55
62476;DHT22;50739;45.670;11.936;2022-09-09T02:43:00;21.33;84.85
62476;DHT22;50739;45.670;11.936;2022-09-09T02:48:08;21.47;84.38
62476;DHT22;50739;45.670;11.936;2022-09-09T02:53:16;21.37;84.51
62476;DHT22;50739;45.670;11.936;2022-09-09T02:58:20;21.41;84.35
62476;DHT22;50739;45.670;11.936;2022-09-09T03:03:22;21.34;84.52
62476;DHT22;50739;45.670;11.936;2022-09-09T03:08:24;21.33;84.60
62476;DHT22;50739;45.670;11.936;2022-09-09T03:13:29;21.34;84.53
62476;DHT22;50739;45.670;11.936;2022-09-09T03:18:31;21.27;84.42
62476;DHT22;50739;45.670;11.936;2022-09-09T03:23:34;21.27;84.34
62476;DHT22;50739;45.670;11.936;2022-09-09T03:28:37;21.20;84.51
62476;DHT22;50739;45.670;11.936;2022-09-09T03:33:40;21.31;84.02
62476;DHT22;50739;45.670;11.936;2022-09-09T03:38:42;21.31;84.26
62476;DHT22;50739;45.670;11.936;2022-09-09T03:43:46;21.31;83.97
62476;DHT22;50739;45.670;11.936;2022-09-09T03:48:47;21.33;83.87
62476;DHT22;50739;45.670;11.936;2022-09-09T03:53:49;21.33;83.76
62476;DHT22;50739;45.670;11.936;2022-09-09T03:58:52;21.26;84.28
62476;DHT22;50739;45.670;11.936;2022-09-09T04:03:54;21.28;84.05
62476;DHT22;50739;45.670;11.936;2022-09-09T04:08:58;21.33;83.80
62476;DHT22;50739;45.670;11.936;2022-09-09T04:14:03;21.26;83.90
62476;DHT22;50739;45.670;11.936;2022-09-09T04:19:06;21.33;83.67
62476;DHT22;50739;45.670;11.936;2022-09-09T04:24:08;21.10;84.43
62476;DHT22;50739;45.670;11.936;2022-09-09T04:29:12;21.19;84.15
62476;DHT22;50739;45.670;11.936;2022-09-09T04:34:13;21.14;83.78
62476;DHT22;50739;45.670;11.936;2022-09-09T04:39:15;21.27;83.40
62476;DHT22;50739;45.670;11.936;2022-09-09T04:44:18;21.17;83.60
62476;DHT22;50739;45.670;11.936;2022-09-09T04:49:20;21.28;83.15
62476;DHT22;50739;45.670;11.936;2022-09-09T04:54:22;21.28;83.42
62476;DHT22;50739;45.670;11.936;2022-09-09T04:59:25;21.17;83.66
62476;DHT22;50739;45.670;11.936;2022-09-09T05:04:27;21.20;83.53
62476;DHT22;50739;45.670;11.936;2022-09-09T05:09:30;21.16;83.72
62476;DHT22;50739;45.670;11.936;2022-09-09T05:14:33;21.23;83.44
62476;DHT22;50739;45.670;11.936;2022-09-09T05:19:36;21.33;83.26
62476;DHT22;50739;45.670;11.936;2022-09-09T05:24:38;21.34;83.23
62476;DHT22;50739;45.670;11.936;2022-09-09T05:29:41;21.38;83.41
62476;DHT22;50739;45.670;11.936;2022-09-09T05:34:44;21.44;83.22
62476;DHT22;50739;45.670;11.936;2022-09-09T05:39:47;21.59;82.83
62476;DHT22;50739;45.670;11.936;2022-09-09T05:44:50;21.62;82.84
62476;DHT22;50739;45.670;11.936;2022-09-09T05:49:54;21.72;82.20
62476;DHT22;50739;45.670;11.936;2022-09-09T05:54:56;21.78;82.15
62476;DHT22;50739;45.670;11.936;2022-09-09T06:00:01;21.92;81.94
62476;DHT22;50739;45.670;11.936;2022-09-09T06:05:04;21.96;81.86
62476;DHT22;50739;45.670;11.936;2022-09-09T06:10:06;22.17;81.07
62476;DHT22;50739;45.670;11.936;2022-09-09T06:15:10;22.33;80.14
62476;DHT22;50739;45.670;11.936;2022-09-09T06:20:12;22.35;80.30
62476;DHT22;50739;45.670;11.936;2022-09-09T06:25:14;22.39;80.03
62476;DHT22;50739;45.670;11.936;2022-09-09T06:30:17;22.60;79.56
62476;DHT22;50739;45.670;11.936;2022-09-09T06:35:19;22.75;79.03
62476;DHT22;50739;45.670;11.936;2022-09-09T06:40:21;22.90;78.49
62476;DHT22;50739;45.670;11.936;2022-09-09T06:45:24;23.16;77.71
62476;DHT22;50739;45.670;11.936;2022-09-09T06:50:26;23.32;77.70
62476;DHT22;50739;45.670;11.936;2022-09-09T06:55:28;23.47;76.89
62476;DHT22;50739;45.670;11.936;2022-09-09T07:00:31;23.50;76.90
62476;DHT22;50739;45.670;11.936;2022-09-09T07:05:33;23.46;77.77
62476;DHT22;50739;45.670;11.936;2022-09-09T07:10:35;23.60;77.43
62476;DHT22;50739;45.670;11.936;2022-09-09T07:15:38;23.61;77.83
62476;DHT22;50739;45.670;11.936;2022-09-09T07:20:40;23.63;77.43
62476;DHT22;50739;45.670;11.936;2022-09-09T07:25:44;23.59;76.44
62476;DHT22;50739;45.670;11.936;2022-09-09T07:30:54;23.50;76.34
62476;DHT22;50739;45.670;11.936;2022-09-09T07:36:03;23.59;76.50
62476;DHT22;50739;45.670;11.936;2022-09-09T07:41:06;23.77;75.79
62476;DHT22;50739;45.670;11.936;2022-09-09T07:46:15;24.04;75.27
62476;DHT22;50739;45.670;11.936;2022-09-09T07:51:20;24.11;75.15
62476;DHT22;50739;45.670;11.936;2022-09-09T07:56:22;24.19;75.06
62476;DHT22;50739;45.670;11.936;2022-09-09T08:01:27;24.22;74.45
62476;DHT22;50739;45.670;11.936;2022-09-09T08:06:31;24.23;74.80
62476;DHT22;50739;45.670;11.936;2022-09-09T08:11:33;24.46;73.82
62476;DHT22;50739;45.670;11.936;2022-09-09T08:16:39;24.44;72.23
62476;DHT22;50739;45.670;11.936;2022-09-09T08:21:43;24.23;73.32
62476;DHT22;50739;45.670;11.936;2022-09-09T08:26:46;24.09;73.71
62476;DHT22;50739;45.670;11.936;2022-09-09T08:31:52;24.08;72.85
62476;DHT22;50739;45.670;11.936;2022-09-09T08:36:54;23.98;72.61
62476;DHT22;50739;45.670;11.936;2022-09-09T08:47:36;23.91;72.16
62476;DHT22;50739;45.670;11.936;2022-09-09T08:52:49;24.01;72.32
62476;DHT22;50739;45.670;11.936;2022-09-09T08:57:56;23.95;72.96
62476;DHT22;50739;45.670;11.936;2022-09-09T09:03:06;24.04;72.31
62476;DHT22;50739;45.670;11.936;2022-09-09T09:08:16;24.08;74.42
62476;DHT22;50739;45.670;11.936;2022-09-09T09:13:20;24.21;73.60
62476;DHT22;50739;45.670;11.936;2022-09-09T09:18:28;24.40;73.69
62476;DHT22;50739;45.670;11.936;2022-09-09T09:23:36;24.67;72.59
62476;DHT22;50739;45.670;11.936;2022-09-09T09:28:40;24.79;73.05
62476;DHT22;50739;45.670;11.936;2022-09-09T09:33:47;25.11;70.98
62476;DHT22;50739;45.670;11.936;2022-09-09T09:38:55;25.12;70.84
62476;DHT22;50739;45.670;11.936;2022-09-09T09:43:57;25.12;72.05
62476;DHT22;50739;45.670;11.936;2022-09-09T09:49:03;25.46;71.17
62476;DHT22;50739;45.670;11.936;2022-09-09T09:54:12;25.56;69.87
62476;DHT22;50739;45.670;11.936;2022-09-09T09:59:23;25.65;69.53
62476;DHT22;50739;45.670;11.936;2022-09-09T10:04:35;25.65;68.40
62476;DHT22;50739;45.670;11.936;2022-09-09T10:09:37;25.70;68.97
62476;DHT22;50739;45.670;11.936;2022-09-09T10:14:45;25.67;68.63
62476;DHT22;50739;45.670;11.936;2022-09-09T10:19:59;25.62;67.89
62476;DHT22;50739;45.670;11.936;2022-09-09T10:25:31;25.65;68.65
62476;DHT22;50739;45.670;11.936;2022-09-09T10:30:39;25.84;67.98
62476;DHT22;50739;45.670;11.936;2022-09-09T10:35:51;26.00;67.99
62476;DHT22;50739;45.670;11.936;2022-09-09T10:41:13;26.05;67.47
62476;DHT22;50739;45.670;11.936;2022-09-09T10:46:21;26.17;67.95
62476;DHT22;50739;45.670;11.936;2022-09-09T10:51:33;26.39;66.87
62476;DHT22;50739;45.670;11.936;2022-09-09T10:56:36;26.63;65.43
62476;DHT22;50739;45.670;11.936;2022-09-09T11:01:43;26.86;66.11
62476;DHT22;50739;45.670;11.936;2022-09-09T11:06:52;26.84;65.82
62476;DHT22;50739;45.670;11.936;2022-09-09T11:11:56;26.57;66.96
62476;DHT22;50739;45.670;11.936;2022-09-09T11:17:01;26.71;67.21
62476;DHT22;50739;45.670;11.936;2022-09-09T11:22:08;26.93;66.57
62476;DHT22;50739;45.670;11.936;2022-09-09T11:27:18;27.27;65.68
62476;DHT22;50739;45.670;11.936;2022-09-09T11:32:39;27.28;64.69
62476;DHT22;50739;45.670;11.936;2022-09-09T11:38:09;27.20;65.74
62476;DHT22;50739;45.670;11.936;2022-09-09T11:43:15;27.38;65.56
62476;DHT22;50739;45.670;11.936;2022-09-09T11:48:28;27.69;64.52
62476;DHT22;50739;45.670;11.936;2022-09-09T11:53:32;27.61;63.56
62476;DHT22;50739;45.670;11.936;2022-09-09T11:58:38;27.23;65.06
62476;DHT22;50739;45.670;11.936;2022-09-09T12:03:43;26.84;66.58
62476;DHT22;50739;45.670;11.936;2022-09-09T12:08:50;26.55;67.02
62476;DHT22;50739;45.670;11.936;2022-09-09T12:13:54;26.32;68.87
62476;DHT22;50739;45.670;11.936;2022-09-09T12:19:06;26.24;68.35
62476;DHT22;50739;45.670;11.936;2022-09-09T12:24:11;26.14;68.32
62476;DHT22;50739;45.670;11.936;2022-09-09T12:29:24;26.08;70.31
62476;DHT22;50739;45.670;11.936;2022-09-09T12:34:35;25.94;70.63
62476;DHT22;50739;45.670;11.936;2022-09-09T12:39:44;25.72;73.28
62476;DHT22;50739;45.670;11.936;2022-09-09T12:44:54;25.45;74.19
62476;DHT22;50739;45.670;11.936;2022-09-09T12:49:57;25.29;74.59
62476;DHT22;50739;45.670;11.936;2022-09-09T12:55:03;24.94;74.66
62476;DHT22;50739;45.670;11.936;2022-09-09T13:00:14;23.51;76.28
62476;DHT22;50739;45.670;11.936;2022-09-09T13:05:20;21.53;82.90
62476;DHT22;50739;45.670;11.936;2022-09-09T13:10:26;20.72;86.66
62476;DHT22;50739;45.670;11.936;2022-09-09T13:15:29;20.85;87.18
62476;DHT22;50739;45.670;11.936;2022-09-09T13:20:31;20.71;87.77
62476;DHT22;50739;45.670;11.936;2022-09-09T13:25:34;21.16;87.02
62476;DHT22;50739;45.670;11.936;2022-09-09T13:30:37;21.66;86.39
62476;DHT22;50739;45.670;11.936;2022-09-09T13:35:46;21.91;85.98
62476;DHT22;50739;45.670;11.936;2022-09-09T13:40:55;22.05;86.16
62476;DHT22;50739;45.670;11.936;2022-09-09T13:45:59;22.32;86.56
62476;DHT22;50739;45.670;11.936;2022-09-09T13:51:03;22.46;86.42
62476;DHT22;50739;45.670;11.936;2022-09-09T13:56:07;22.87;85.33
62476;DHT22;50739;45.670;11.936;2022-09-09T14:01:09;23.33;81.97
62476;DHT22;50739;45.670;11.936;2022-09-09T14:06:12;23.22;82.94
62476;DHT22;50739;45.670;11.936;2022-09-09T14:11:15;23.30;82.32
62476;DHT22;50739;45.670;11.936;2022-09-09T14:16:18;23.71;78.95
62476;DHT22;50739;45.670;11.936;2022-09-09T14:21:20;23.82;79.50
62476;DHT22;50739;45.670;11.936;2022-09-09T14:26:24;23.87;80.52
62476;DHT22;50739;45.670;11.936;2022-09-09T14:31:26;24.56;78.57
62476;DHT22;50739;45.670;11.936;2022-09-09T14:36:28;25.05;77.11
62476;DHT22;50739;45.670;11.936;2022-09-09T14:41:31;25.63;74.67
62476;DHT22;50739;45.670;11.936;2022-09-09T14:46:34;26.65;70.06
62476;DHT22;50739;45.670;11.936;2022-09-09T14:51:36;28.18;65.32
62476;DHT22;50739;45.670;11.936;2022-09-09T14:56:39;28.74;63.80
62476;DHT22;50739;45.670;11.936;2022-09-09T15:01:41;29.31;62.08
62476;DHT22;50739;45.670;11.936;2022-09-09T15:06:42;29.60;61.12
62476;DHT22;50739;45.670;11.936;2022-09-09T15:11:48;29.61;60.55
62476;DHT22;50739;45.670;11.936;2022-09-09T15:16:50;29.61;60.37
62476;DHT22;50739;45.670;11.936;2022-09-09T15:21:52;29.72;61.21
62476;DHT22;50739;45.670;11.936;2022-09-09T15:26:56;29.58;62.06
62476;DHT22;50739;45.670;11.936;2022-09-09T15:31:58;29.98;60.07
62476;DHT22;50739;45.670;11.936;2022-09-09T15:36:59;29.77;59.75
62476;DHT22;50739;45.670;11.936;2022-09-09T15:42:03;29.49;59.09
62476;DHT22;50739;45.670;11.936;2022-09-09T15:47:05;29.55;59.68
62476;DHT22;50739;45.670;11.936;2022-09-09T15:52:09;29.64;59.80
62476;DHT22;50739;45.670;11.936;2022-09-09T15:57:14;29.29;59.29
62476;DHT22;50739;45.670;11.936;2022-09-09T16:02:16;29.58;57.00
62476;DHT22;50739;45.670;11.936;2022-09-09T16:07:18;29.35;57.94
62476;DHT22;50739;45.670;11.936;2022-09-09T16:12:22;29.09;58.81
62476;DHT22;50739;45.670;11.936;2022-09-09T16:17:24;28.71;60.17
62476;DHT22;50739;45.670;11.936;2022-09-09T16:22:26;28.17;62.04
62476;DHT22;50739;45.670;11.936;2022-09-09T16:27:29;27.48;64.23
62476;DHT22;50739;45.670;11.936;2022-09-09T16:32:31;26.86;65.48
62476;DHT22;50739;45.670;11.936;2022-09-09T16:37:33;26.38;66.02
62476;DHT22;50739;45.670;11.936;2022-09-09T16:42:36;26.16;67.27
62476;DHT22;50739;45.670;11.936;2022-09-09T16:47:37;25.73;68.05
62476;DHT22;50739;45.670;11.936;2022-09-09T16:52:39;25.36;69.36
62476;DHT22;50739;45.670;11.936;2022-09-09T16:57:42;25.01;70.95
62476;DHT22;50739;45.670;11.936;2022-09-09T17:02:44;24.71;73.31
62476;DHT22;50739;45.670;11.936;2022-09-09T17:07:46;24.44;74.49
62476;DHT22;50739;45.670;11.936;2022-09-09T17:12:50;24.19;75.03
62476;DHT22;50739;45.670;11.936;2022-09-09T17:17:51;24.04;77.07
62476;DHT22;50739;45.670;11.936;2022-09-09T17:22:54;23.84;78.88
62476;DHT22;50739;45.670;11.936;2022-09-09T17:27:58;23.70;78.84
62476;DHT22;50739;45.670;11.936;2022-09-09T17:33:00;23.71;78.40
62476;DHT22;50739;45.670;11.936;2022-09-09T17:38:02;23.51;80.47
62476;DHT22;50739;45.670;11.936;2022-09-09T17:43:05;23.24;80.46
62476;DHT22;50739;45.670;11.936;2022-09-09T17:48:07;23.12;81.42
62476;DHT22;50739;45.670;11.936;2022-09-09T17:53:10;23.08;81.88
62476;DHT22;50739;45.670;11.936;2022-09-09T17:58:14;23.01;81.46
62476;DHT22;50739;45.670;11.936;2022-09-09T18:03:16;23.05;79.81
62476;DHT22;50739;45.670;11.936;2022-09-09T18:08:17;22.90;80.31
62476;DHT22;50739;45.670;11.936;2022-09-09T18:13:21;22.94;80.88
62476;DHT22;50739;45.670;11.936;2022-09-09T18:18:23;22.88;80.85
62476;DHT22;50739;45.670;11.936;2022-09-09T18:23:25;22.58;83.82
62476;DHT22;50739;45.670;11.936;2022-09-09T18:28:28;22.46;84.34
62476;DHT22;50739;45.670;11.936;2022-09-09T18:33:29;22.27;84.73
62476;DHT22;50739;45.670;11.936;2022-09-09T18:38:32;22.21;84.64
62476;DHT22;50739;45.670;11.936;2022-09-09T18:43:36;22.29;83.43
62476;DHT22;50739;45.670;11.936;2022-09-09T18:48:38;22.24;82.87
62476;DHT22;50739;45.670;11.936;2022-09-09T18:53:40;22.23;82.29
62476;DHT22;50739;45.670;11.936;2022-09-09T18:58:44;22.20;81.93
62476;DHT22;50739;45.670;11.936;2022-09-09T19:03:48;22.14;81.87
62476;DHT22;50739;45.670;11.936;2022-09-09T19:08:50;22.13;81.16
62476;DHT22;50739;45.670;11.936;2022-09-09T19:13:58;22.09;80.85
62476;DHT22;50739;45.670;11.936;2022-09-09T19:19:03;22.03;81.04
62476;DHT22;50739;45.670;11.936;2022-09-09T19:24:07;22.05;81.51
62476;DHT22;50739;45.670;11.936;2022-09-09T19:29:14;22.08;80.79
62476;DHT22;50739;45.670;11.936;2022-09-09T19:34:16;22.08;81.06
62476;DHT22;50739;45.670;11.936;2022-09-09T19:39:19;22.08;80.97
62476;DHT22;50739;45.670;11.936;2022-09-09T19:44:23;22.10;80.39
62476;DHT22;50739;45.670;11.936;2022-09-09T19:49:25;22.06;80.13
62476;DHT22;50739;45.670;11.936;2022-09-09T19:54:27;21.99;80.37
62476;DHT22;50739;45.670;11.936;2022-09-09T19:59:30;21.82;81.10
62476;DHT22;50739;45.670;11.936;2022-09-09T20:04:32;21.91;80.74
62476;DHT22;50739;45.670;11.936;2022-09-09T20:09:34;21.83;80.08
62476;DHT22;50739;45.670;11.936;2022-09-09T20:14:37;21.75;80.20
62476;DHT22;50739;45.670;11.936;2022-09-09T20:19:39;21.64;80.44
62476;DHT22;50739;45.670;11.936;2022-09-09T20:24:41;21.53;80.74
62476;DHT22;50739;45.670;11.936;2022-09-09T20:29:44;21.48;80.75
62476;DHT22;50739;45.670;11.936;2022-09-09T20:34:46;21.45;80.78
62476;DHT22;50739;45.670;11.936;2022-09-09T20:39:48;21.40;80.46
62476;DHT22;50739;45.670;11.936;2022-09-09T20:44:51;21.24;80.57
62476;DHT22;50739;45.670;11.936;2022-09-09T20:49:53;21.19;80.61
62476;DHT22;50739;45.670;11.936;2022-09-09T20:54:55;21.26;79.38
62476;DHT22;50739;45.670;11.936;2022-09-09T20:59:58;21.13;78.91
62476;DHT22;50739;45.670;11.936;2022-09-09T21:05:00;21.03;78.33
62476;DHT22;50739;45.670;11.936;2022-09-09T21:10:02;20.92;77.51
62476;DHT22;50739;45.670;11.936;2022-09-09T21:15:06;20.93;76.80
62476;DHT22;50739;45.670;11.936;2022-09-09T21:20:08;20.82;76.27
62476;DHT22;50739;45.670;11.936;2022-09-09T21:25:10;20.78;76.46
62476;DHT22;50739;45.670;11.936;2022-09-09T21:30:14;20.71;77.18
62476;DHT22;50739;45.670;11.936;2022-09-09T21:35:16;20.69;76.51
62476;DHT22;50739;45.670;11.936;2022-09-09T21:40:18;20.80;77.42
62476;DHT22;50739;45.670;11.936;2022-09-09T21:45:21;20.54;77.47
62476;DHT22;50739;45.670;11.936;2022-09-09T21:50:24;20.68;76.36
62476;DHT22;50739;45.670;11.936;2022-09-09T21:55:26;20.55;77.10
62476;DHT22;50739;45.670;11.936;2022-09-09T22:00:30;20.45;77.43
62476;DHT22;50739;45.670;11.936;2022-09-09T22:05:32;20.34;77.84
62476;DHT22;50739;45.670;11.936;2022-09-09T22:10:35;20.41;77.82
62476;DHT22;50739;45.670;11.936;2022-09-09T22:15:41;20.33;78.95
62476;DHT22;50739;45.670;11.936;2022-09-09T22:20:44;20.34;79.18
62476;DHT22;50739;45.670;11.936;2022-09-09T22:25:48;20.16;79.68
62476;DHT22;50739;45.670;11.936;2022-09-09T22:30:51;20.21;79.77
62476;DHT22;50739;45.670;11.936;2022-09-09T22:35:53;20.07;80.64
62476;DHT22;50739;45.670;11.936;2022-09-09T22:40:55;20.09;81.59
62476;DHT22;50739;45.670;11.936;2022-09-09T22:45:59;20.12;81.25
62476;DHT22;50739;45.670;11.936;2022-09-09T22:51:02;20.31;80.13
62476;DHT22;50739;45.670;11.936;2022-09-09T22:56:06;20.18;81.07
62476;DHT22;50739;45.670;11.936;2022-09-09T23:01:11;20.18;80.75
62476;DHT22;50739;45.670;11.936;2022-09-09T23:06:16;19.92;81.67
62476;DHT22;50739;45.670;11.936;2022-09-09T23:11:19;19.96;82.26
62476;DHT22;50739;45.670;11.936;2022-09-09T23:16:24;19.79;82.84
62476;DHT22;50739;45.670;11.936;2022-09-09T23:21:28;19.58;83.82
62476;DHT22;50739;45.670;11.936;2022-09-09T23:26:30;19.76;83.50
62476;DHT22;50739;45.670;11.936;2022-09-09T23:31:34;19.65;83.91
62476;DHT22;50739;45.670;11.936;2022-09-09T23:36:37;19.65;84.30
62476;DHT22;50739;45.670;11.936;2022-09-09T23:41:39;19.59;84.61
62476;DHT22;50739;45.670;11.936;2022-09-09T23:46:42;19.63;84.03
62476;DHT22;50739;45.670;11.936;2022-09-09T23:51:44;19.65;84.95
62476;DHT22;50739;45.670;11.936;2022-09-09T23:56:48;19.62;84.64
